createdAt,value
2019-03-04T00:01:21.640Z,90.60
2019-03-04T00:03:52.520Z,90.60
2019-03-04T00:06:23.396Z,90.70
2019-03-04T00:08:54.216Z,90.90
2019-03-04T00:11:25.365Z,90.60
2019-03-04T00:13:56.181Z,90.90
2019-03-04T00:16:27.012Z,90.80
2019-03-04T00:18:57.880Z,91.00
2019-03-04T00:21:28.732Z,90.60
2019-03-04T00:23:59.545Z,90.70
2019-03-04T00:26:30.637Z,91.00
2019-03-04T00:29:01.821Z,90.90
2019-03-04T00:31:33.152Z,90.70
2019-03-04T00:34:04.426Z,90.60
2019-03-04T00:36:35.652Z,90.50
2019-03-04T00:39:10.953Z,90.80
2019-03-04T00:41:42.121Z,90.60
2019-03-04T00:44:13.282Z,90.80
2019-03-04T00:46:44.425Z,91.30
2019-03-04T00:49:15.536Z,91.10
2019-03-04T00:51:46.864Z,91.10
2019-03-04T00:54:17.692Z,91.10
2019-03-04T00:56:48.560Z,90.90
2019-03-04T00:59:19.396Z,91.00
2019-03-04T01:01:50.344Z,90.80
2019-03-04T01:04:21.396Z,90.60
2019-03-04T01:06:52.736Z,90.60
2019-03-04T01:09:23.555Z,90.50
2019-03-04T01:11:54.409Z,90.40
2019-03-04T01:14:25.240Z,90.60
2019-03-04T01:16:56.089Z,90.50
2019-03-04T01:19:26.916Z,90.50
2019-03-04T01:21:57.769Z,90.40
2019-03-04T01:24:29.119Z,90.50
2019-03-04T01:27:00.307Z,90.20
2019-03-04T01:29:31.402Z,90.40
2019-03-04T01:32:02.556Z,90.60
2019-03-04T01:34:33.384Z,90.70
2019-03-04T01:37:04.325Z,90.60
2019-03-04T01:39:35.228Z,90.60
2019-03-04T01:42:06.093Z,90.30
2019-03-04T01:44:36.919Z,90.40
2019-03-04T01:47:07.786Z,90.40
2019-03-04T01:49:38.714Z,90.40
2019-03-04T01:52:09.533Z,90.30
2019-03-04T01:54:40.348Z,90.20
2019-03-04T01:57:11.547Z,90.20
2019-03-04T01:59:42.733Z,90.30
2019-03-04T02:02:13.680Z,90.10
2019-03-04T02:04:44.812Z,90.00
2019-03-04T02:07:17.154Z,90.20
2019-03-04T02:09:48.325Z,90.00
2019-03-04T02:12:19.446Z,90.20
2019-03-04T02:14:50.318Z,90.20
2019-03-04T02:17:21.208Z,90.20
2019-03-04T02:19:52.093Z,90.10
2019-03-04T02:22:22.923Z,90.10
2019-03-04T02:24:53.782Z,90.10
2019-03-04T02:27:24.970Z,90.20
2019-03-04T02:29:55.832Z,90.10
2019-03-04T02:32:26.694Z,90.10
2019-03-04T02:34:57.532Z,90.20
2019-03-04T02:37:28.360Z,90.10
2019-03-04T02:39:59.193Z,90.20
2019-03-04T02:42:30.067Z,90.10
2019-03-04T02:45:00.913Z,90.10
2019-03-04T02:47:33.325Z,90.00
2019-03-04T02:50:04.244Z,90.10
2019-03-04T02:52:35.126Z,90.00
2019-03-04T02:55:06.770Z,90.10
2019-03-04T02:57:37.637Z,90.10
2019-03-04T03:00:09.694Z,90.50
2019-03-04T03:02:40.849Z,90.10
2019-03-04T03:05:12.033Z,90.30
2019-03-04T03:07:43.258Z,90.30
2019-03-04T03:10:14.690Z,90.30
2019-03-04T03:12:46.002Z,90.40
2019-03-04T03:15:18.519Z,90.40
2019-03-04T03:17:49.849Z,90.40
2019-03-04T03:20:21.134Z,90.40
2019-03-04T03:22:52.342Z,90.50
2019-03-04T03:25:23.438Z,90.50
2019-03-04T03:27:54.710Z,90.60
2019-03-04T03:30:25.878Z,90.60
2019-03-04T03:32:57.209Z,90.70
2019-03-04T03:35:28.389Z,90.80
2019-03-04T03:37:59.631Z,90.70
2019-03-04T03:40:30.901Z,90.70
2019-03-04T03:43:01.827Z,90.80
2019-03-04T03:45:32.647Z,90.70
2019-03-04T03:48:03.439Z,90.70
2019-03-04T03:50:34.779Z,90.60
2019-03-04T03:53:05.918Z,90.50
2019-03-04T03:55:37.151Z,90.50
2019-03-04T03:58:08.451Z,90.60
2019-03-04T04:00:39.603Z,90.70
2019-03-04T04:03:10.946Z,90.60
2019-03-04T04:05:42.129Z,90.30
2019-03-04T04:08:13.448Z,90.50
2019-03-04T04:10:44.649Z,90.50
2019-03-04T04:13:15.855Z,90.40
2019-03-04T04:15:47.190Z,90.30
2019-03-04T04:18:18.088Z,90.30
2019-03-04T04:20:49.476Z,90.30
2019-03-04T04:23:20.307Z,90.20
2019-03-04T04:25:51.115Z,90.10
2019-03-04T04:28:21.937Z,90.00
2019-03-04T04:30:52.755Z,90.00
2019-03-04T04:33:23.609Z,90.10
2019-03-04T04:35:54.803Z,90.00
2019-03-04T04:38:26.001Z,90.00
2019-03-04T04:40:57.076Z,90.30
2019-03-04T04:43:29.274Z,90.00
2019-03-04T04:46:00.617Z,90.00
2019-03-04T04:48:31.915Z,89.90
2019-03-04T04:51:03.196Z,89.70
2019-03-04T04:53:34.466Z,89.90
2019-03-04T04:56:06.013Z,89.90
2019-03-04T04:58:37.213Z,89.70
2019-03-04T05:01:08.029Z,89.40
2019-03-04T05:03:38.869Z,89.70
2019-03-04T05:06:09.977Z,89.70
2019-03-04T05:08:41.123Z,89.70
2019-03-04T05:11:12.545Z,89.60
2019-03-04T05:13:43.521Z,89.30
2019-03-04T05:16:14.802Z,89.20
2019-03-04T05:18:46.837Z,89.00
2019-03-04T05:21:18.074Z,89.10
2019-03-04T05:23:49.425Z,89.20
2019-03-04T05:26:21.800Z,89.10
2019-03-04T05:28:52.952Z,88.90
2019-03-04T05:31:23.986Z,88.70
2019-03-04T05:33:55.587Z,88.90
2019-03-04T05:36:27.859Z,89.00
2019-03-04T05:38:59.058Z,89.10
2019-03-04T05:41:30.409Z,89.00
2019-03-04T05:44:01.750Z,89.00
2019-03-04T05:46:32.897Z,88.90
2019-03-04T05:49:04.110Z,89.00
2019-03-04T05:51:35.365Z,89.00
2019-03-04T05:54:06.686Z,88.80
2019-03-04T05:56:37.689Z,88.80
2019-03-04T05:59:08.880Z,88.70
2019-03-04T06:01:42.239Z,88.70
2019-03-04T06:04:13.933Z,88.70
2019-03-04T06:07:02.133Z,88.60
2019-03-04T06:09:33.364Z,88.30
2019-03-04T06:12:04.614Z,88.50
2019-03-04T06:14:35.837Z,88.50
2019-03-04T06:17:07.153Z,88.50
2019-03-04T06:19:38.275Z,88.10
2019-03-04T06:22:09.471Z,87.90
2019-03-04T06:24:40.287Z,87.70
2019-03-04T06:27:11.137Z,87.50
2019-03-04T06:29:42.327Z,87.30
2019-03-04T06:32:13.529Z,87.50
2019-03-04T06:34:44.649Z,87.20
2019-03-04T06:37:15.803Z,87.60
2019-03-04T06:39:47.016Z,87.60
2019-03-04T06:42:18.244Z,87.70
2019-03-04T06:44:49.465Z,87.70
2019-03-04T06:47:20.649Z,87.90
2019-03-04T06:49:52.012Z,87.80
2019-03-04T06:52:23.296Z,87.90
2019-03-04T06:55:18.719Z,88.00
2019-03-04T06:57:51.623Z,87.90
2019-03-04T07:00:44.646Z,87.90
2019-03-04T07:03:44.757Z,87.80
2019-03-04T07:06:16.193Z,87.40
2019-03-04T07:09:13.556Z,87.40
2019-03-04T07:11:48.355Z,87.30
2019-03-04T07:14:19.504Z,87.50
2019-03-04T07:16:51.733Z,87.10
2019-03-04T07:19:26.859Z,87.00
2019-03-04T07:21:58.092Z,87.00
2019-03-04T07:24:29.257Z,86.90
2019-03-04T07:27:00.386Z,87.10
2019-03-04T07:29:31.540Z,87.20
2019-03-04T07:32:02.727Z,87.40
2019-03-04T07:34:34.170Z,87.00
2019-03-04T07:37:05.469Z,86.60
2019-03-04T07:39:36.614Z,86.40
2019-03-04T07:42:07.794Z,86.90
2019-03-04T07:44:39.092Z,86.60
2019-03-04T07:47:10.450Z,86.10
2019-03-04T07:49:41.847Z,86.20
2019-03-04T07:52:12.940Z,85.90
2019-03-04T07:54:44.076Z,86.00
2019-03-04T07:57:15.310Z,85.50
2019-03-04T07:59:46.469Z,85.40
2019-03-04T08:02:17.618Z,85.00
2019-03-04T08:04:48.756Z,84.50
2019-03-04T08:07:51.433Z,84.50
2019-03-04T08:10:53.322Z,84.70
2019-03-04T08:13:38.167Z,84.80
2019-03-04T08:16:10.972Z,84.40
2019-03-04T08:18:42.220Z,84.90
2019-03-04T08:21:13.404Z,85.00
2019-03-04T08:23:44.556Z,85.20
2019-03-04T08:26:15.978Z,85.10
2019-03-04T08:28:46.946Z,85.60
2019-03-04T08:31:18.282Z,85.10
2019-03-04T08:33:49.659Z,84.60
2019-03-04T08:36:20.487Z,84.40
2019-03-04T08:38:51.681Z,84.00
2019-03-04T08:41:22.814Z,83.90
2019-03-04T08:43:54.078Z,83.60
2019-03-04T08:46:25.210Z,83.30
2019-03-04T08:48:56.380Z,83.10
2019-03-04T08:51:27.759Z,83.00
2019-03-04T08:53:58.934Z,82.80
2019-03-04T08:56:30.105Z,83.20
2019-03-04T08:59:01.265Z,83.30
2019-03-04T09:01:32.489Z,83.60
2019-03-04T09:04:03.692Z,84.30
2019-03-04T09:06:34.920Z,84.40
2019-03-04T09:09:08.782Z,84.50
2019-03-04T09:11:39.677Z,84.70
2019-03-04T09:14:10.625Z,84.90
2019-03-04T09:16:41.506Z,84.60
2019-03-04T09:19:13.351Z,85.30
2019-03-04T09:21:46.953Z,84.70
2019-03-04T09:24:19.258Z,84.80
2019-03-04T09:26:50.185Z,85.10
2019-03-04T09:29:21.017Z,84.90
2019-03-04T09:31:52.181Z,84.80
2019-03-04T09:34:23.388Z,84.30
2019-03-04T09:36:54.622Z,83.30
2019-03-04T09:39:26.128Z,83.10
2019-03-04T09:42:04.277Z,82.30
2019-03-04T09:44:35.485Z,82.60
2019-03-04T09:47:07.553Z,82.10
2019-03-04T09:49:38.432Z,82.60
2019-03-04T09:52:09.431Z,82.00
2019-03-04T09:54:40.770Z,82.00
2019-03-04T09:57:11.909Z,82.20
2019-03-04T09:59:43.075Z,82.50
2019-03-04T10:02:21.673Z,82.80
2019-03-04T10:05:51.292Z,83.30
2019-03-04T10:08:36.607Z,83.50
2019-03-04T10:11:50.228Z,83.60
2019-03-04T10:15:10.934Z,83.90
2019-03-04T10:18:26.685Z,83.40
2019-03-04T10:21:17.223Z,83.40
2019-03-04T10:24:29.124Z,82.70
2019-03-04T10:27:24.982Z,82.20
2019-03-04T10:30:27.347Z,81.90
2019-03-04T10:33:33.388Z,81.70
2019-03-04T10:37:03.237Z,81.00
2019-03-04T10:40:25.033Z,80.70
2019-03-04T10:43:33.197Z,80.00
2019-03-04T10:46:44.238Z,78.80
2019-03-04T10:49:15.484Z,78.90
2019-03-04T10:51:46.619Z,79.40
2019-03-04T10:54:17.797Z,79.30
2019-03-04T10:56:49.062Z,78.90
2019-03-04T10:59:20.275Z,79.00
2019-03-04T11:01:52.001Z,78.30
2019-03-04T11:04:36.673Z,78.40
2019-03-04T11:07:07.505Z,78.20
2019-03-04T11:09:38.571Z,78.10
2019-03-04T11:12:09.467Z,78.30
2019-03-04T11:14:40.655Z,78.80
2019-03-04T11:17:11.741Z,79.40
2019-03-04T11:19:42.951Z,79.70
2019-03-04T11:22:14.224Z,79.40
2019-03-04T11:24:46.470Z,79.20
2019-03-04T11:27:17.917Z,79.10
2019-03-04T11:29:48.746Z,78.30
2019-03-04T11:32:19.556Z,77.80
2019-03-04T11:34:50.412Z,77.30
2019-03-04T11:37:21.273Z,77.10
2019-03-04T11:40:11.896Z,77.30
2019-03-04T11:42:42.704Z,77.80
2019-03-04T11:45:16.049Z,78.00
2019-03-04T11:47:47.292Z,78.40
2019-03-04T11:50:18.702Z,78.60
2019-03-04T11:52:49.945Z,78.90
2019-03-04T11:55:21.744Z,79.30
2019-03-04T11:57:52.896Z,79.90
2019-03-04T12:00:35.366Z,80.40
2019-03-04T12:03:06.905Z,80.70
2019-03-04T12:05:38.237Z,80.90
2019-03-04T12:08:09.060Z,80.80
2019-03-04T12:10:40.197Z,81.20
2019-03-04T12:13:11.129Z,81.20
2019-03-04T12:15:42.147Z,80.70
2019-03-04T12:18:12.949Z,80.10
2019-03-04T12:20:44.904Z,79.40
2019-03-04T12:23:16.517Z,79.40
2019-03-04T12:25:47.745Z,79.40
2019-03-04T12:28:19.906Z,79.50
2019-03-04T12:30:50.912Z,79.40
2019-03-04T12:33:21.737Z,79.30
2019-03-04T12:35:52.597Z,79.50
2019-03-04T12:38:23.402Z,79.80
2019-03-04T12:40:54.280Z,80.20
2019-03-04T12:43:25.425Z,80.70
2019-03-04T12:45:56.589Z,81.30
2019-03-04T12:48:27.635Z,81.50
2019-03-04T12:50:59.037Z,82.10
2019-03-04T12:53:37.038Z,82.60
2019-03-04T12:56:05.167Z,83.00
2019-03-04T12:58:36.005Z,82.90
2019-03-04T13:01:07.032Z,83.10
2019-03-04T13:03:38.186Z,83.50
2019-03-04T13:06:09.336Z,83.50
2019-03-04T13:08:40.159Z,83.30
2019-03-04T13:11:10.991Z,84.10
2019-03-04T13:13:41.800Z,84.10
2019-03-04T13:16:12.681Z,84.00
2019-03-04T13:18:45.252Z,84.30
2019-03-04T13:21:17.231Z,85.20
2019-03-04T13:23:48.347Z,85.20
2019-03-04T13:26:19.208Z,85.30
2019-03-04T13:28:50.033Z,86.10
2019-03-04T13:31:20.864Z,86.00
2019-03-04T13:33:51.681Z,86.40
2019-03-04T13:36:22.762Z,86.60
2019-03-04T13:38:53.552Z,85.90
2019-03-04T13:41:24.800Z,86.50
2019-03-04T13:43:55.611Z,86.90
2019-03-04T13:46:26.436Z,87.10
2019-03-04T13:48:57.548Z,87.20
2019-03-04T13:51:28.404Z,87.50
2019-03-04T13:53:59.256Z,87.20
2019-03-04T13:56:30.386Z,88.00
2019-03-04T13:59:01.569Z,88.30
2019-03-04T14:01:32.764Z,87.90
2019-03-04T14:04:03.914Z,87.90
2019-03-04T14:06:34.864Z,88.20
2019-03-04T14:09:07.380Z,88.60
2019-03-04T14:11:38.898Z,89.20
2019-03-04T14:14:09.713Z,89.80
2019-03-04T14:16:40.552Z,90.10
2019-03-04T14:19:11.365Z,89.60
2019-03-04T14:21:42.169Z,89.80
2019-03-04T14:24:13.074Z,90.40
2019-03-04T14:26:44.454Z,90.50
2019-03-04T14:29:15.613Z,91.00
2019-03-04T14:31:46.540Z,91.10
2019-03-04T14:34:17.359Z,91.20
2019-03-04T14:36:48.176Z,91.40
2019-03-04T14:39:19.133Z,91.10
2019-03-04T14:41:50.075Z,91.10
2019-03-04T14:44:21.329Z,91.30
2019-03-04T14:46:52.184Z,91.40
2019-03-04T14:49:22.988Z,91.60
2019-03-04T14:51:53.849Z,91.70
2019-03-04T14:54:24.652Z,91.70
2019-03-04T14:56:55.713Z,91.70
2019-03-04T14:59:26.505Z,91.20
2019-03-04T15:01:57.337Z,91.50
2019-03-04T15:04:28.157Z,91.40
2019-03-04T15:06:58.994Z,91.50
2019-03-04T15:09:29.841Z,91.40
2019-03-04T15:12:00.680Z,91.60
2019-03-04T15:14:33.814Z,91.60
2019-03-04T15:17:04.632Z,91.60
2019-03-04T15:19:35.432Z,91.90
2019-03-04T15:22:06.471Z,91.80
2019-03-04T15:24:37.292Z,91.80
2019-03-04T15:27:08.109Z,91.70
2019-03-04T15:29:38.953Z,91.90
2019-03-04T15:32:09.797Z,92.20
2019-03-04T15:34:40.721Z,92.20
2019-03-04T15:37:12.264Z,91.90
2019-03-04T15:39:43.436Z,92.30
2019-03-04T15:42:14.625Z,92.20
2019-03-04T15:44:45.445Z,92.10
2019-03-04T15:47:16.284Z,92.20
2019-03-04T15:49:47.100Z,92.20
2019-03-04T15:52:18.076Z,92.60
2019-03-04T15:54:48.895Z,91.80
2019-03-04T15:57:19.849Z,92.50
2019-03-04T15:59:50.676Z,92.40
2019-03-04T16:02:21.795Z,92.40
2019-03-04T16:04:52.605Z,92.10
2019-03-04T16:07:23.533Z,92.20
2019-03-04T16:09:54.338Z,92.20
2019-03-04T16:12:25.401Z,92.40
2019-03-04T16:14:56.640Z,92.60
2019-03-04T16:17:27.488Z,93.00
2019-03-04T16:19:58.306Z,93.00
2019-03-04T16:22:29.104Z,93.10
2019-03-04T16:25:00.328Z,93.30
2019-03-04T16:27:31.559Z,93.10
2019-03-04T16:30:02.377Z,93.00
2019-03-04T16:32:33.301Z,93.10
2019-03-04T16:35:04.299Z,93.10
2019-03-04T16:37:35.144Z,92.60
2019-03-04T16:40:07.169Z,92.70
2019-03-04T16:42:38.224Z,93.00
2019-03-04T16:45:09.347Z,93.50
2019-03-04T16:47:40.181Z,93.60
2019-03-04T16:50:12.789Z,93.60
2019-03-04T16:52:44.112Z,93.70
2019-03-04T16:55:15.968Z,93.60
2019-03-04T16:57:46.957Z,93.80
2019-03-04T17:00:19.049Z,93.70
2019-03-04T17:02:50.277Z,93.70
2019-03-04T17:05:21.448Z,93.70
2019-03-04T17:07:52.325Z,93.70
2019-03-04T17:10:23.233Z,94.40
2019-03-04T17:12:54.916Z,94.10
2019-03-04T17:15:25.980Z,94.30
2019-03-04T17:17:56.810Z,94.40
2019-03-04T17:20:27.672Z,94.40
2019-03-04T17:22:58.656Z,94.20
2019-03-04T17:25:29.516Z,94.60
2019-03-04T17:28:00.472Z,94.90
2019-03-04T17:30:31.448Z,94.90
2019-03-04T17:33:02.383Z,94.90
2019-03-04T17:35:33.402Z,94.90
2019-03-04T17:38:04.369Z,95.00
2019-03-04T17:40:35.255Z,95.20
2019-03-04T17:43:06.120Z,95.20
2019-03-04T17:45:37.164Z,94.80
2019-03-04T17:48:08.196Z,94.50
2019-03-04T17:50:39.292Z,94.90
2019-03-04T17:53:10.260Z,94.90
2019-03-04T17:55:41.092Z,94.90
2019-03-04T17:58:12.109Z,94.70
2019-03-04T18:00:45.937Z,94.90
2019-03-04T18:03:16.829Z,95.10
2019-03-04T18:05:47.789Z,95.10
2019-03-04T18:08:18.841Z,95.00
2019-03-04T18:10:49.703Z,94.90
2019-03-04T18:13:20.669Z,95.20
2019-03-04T18:15:51.870Z,95.30
2019-03-04T18:18:22.717Z,95.50
2019-03-04T18:20:53.555Z,95.70
2019-03-04T18:23:24.392Z,95.80
2019-03-04T18:26:02.717Z,95.90
2019-03-04T18:29:00.969Z,96.00
2019-03-04T18:31:46.562Z,95.90
2019-03-04T18:34:56.654Z,95.90
2019-03-04T18:38:07.128Z,95.80
2019-03-04T18:41:20.850Z,95.80
2019-03-04T18:44:45.488Z,96.00
2019-03-04T18:48:03.194Z,96.10
2019-03-04T18:50:34.135Z,96.10
2019-03-04T18:53:05.089Z,95.90
2019-03-04T18:55:37.514Z,96.30
2019-03-04T18:58:08.629Z,96.50
2019-03-04T19:00:39.467Z,96.40
2019-03-04T19:03:11.373Z,95.90
2019-03-04T19:05:42.205Z,96.10
2019-03-04T19:08:14.108Z,96.50
2019-03-04T19:10:45.026Z,96.30
2019-03-04T19:13:15.867Z,96.20
2019-03-04T19:15:46.924Z,96.60
2019-03-04T19:18:17.760Z,96.50
2019-03-04T19:20:48.716Z,96.70
2019-03-04T19:23:19.701Z,96.70
2019-03-04T19:25:50.505Z,96.60
2019-03-04T19:28:21.417Z,96.60
2019-03-04T19:30:52.448Z,96.90
2019-03-04T19:33:23.461Z,96.90
2019-03-04T19:35:54.388Z,96.70
2019-03-04T19:38:25.407Z,97.00
2019-03-04T19:40:56.285Z,96.80
2019-03-04T19:43:32.820Z,96.70
2019-03-04T19:45:59.670Z,97.10
2019-03-04T19:48:30.573Z,97.10
2019-03-04T19:51:01.636Z,97.50
2019-03-04T19:53:32.642Z,97.30
2019-03-04T19:56:03.693Z,97.50
2019-03-04T19:58:34.736Z,97.20
2019-03-04T20:01:06.185Z,97.10
2019-03-04T20:03:37.128Z,96.80
2019-03-04T20:06:08.169Z,96.80
2019-03-04T20:08:40.045Z,96.70
2019-03-04T20:11:11.897Z,96.60
2019-03-04T20:13:43.837Z,96.10
2019-03-04T20:16:14.772Z,96.30
2019-03-04T20:18:45.878Z,96.70
2019-03-04T20:21:16.824Z,96.30
2019-03-04T20:23:47.659Z,96.10
2019-03-04T20:26:18.490Z,96.10
2019-03-04T20:28:49.336Z,96.10
2019-03-04T20:31:20.188Z,95.80
2019-03-04T20:33:51.065Z,95.70
2019-03-04T20:36:21.945Z,95.60
2019-03-04T20:38:52.955Z,95.60
2019-03-04T20:41:24.016Z,95.50
2019-03-04T20:43:55.973Z,95.30
2019-03-04T20:46:26.977Z,95.20
2019-03-04T20:48:57.864Z,94.80
2019-03-04T20:51:28.732Z,94.70
2019-03-04T20:53:59.580Z,94.70
2019-03-04T20:56:30.423Z,94.60
2019-03-04T20:59:03.331Z,94.60
2019-03-04T21:01:34.425Z,94.60
2019-03-04T21:04:07.269Z,94.40
2019-03-04T21:06:38.272Z,94.20
2019-03-04T21:09:22.495Z,94.20
2019-03-04T21:11:53.957Z,94.10
2019-03-04T21:14:42.530Z,93.90
2019-03-04T21:17:33.258Z,93.60
2019-03-04T21:20:12.638Z,93.30
2019-03-04T21:23:16.407Z,93.40
2019-03-04T21:26:03.303Z,92.80
2019-03-04T21:29:11.060Z,92.90
2019-03-04T21:32:02.255Z,92.80
2019-03-04T21:35:02.592Z,92.70
2019-03-04T21:37:45.101Z,92.70
2019-03-04T21:40:23.300Z,92.50
2019-03-04T21:43:02.501Z,92.60
2019-03-04T21:46:10.101Z,92.70
2019-03-04T21:48:44.876Z,92.60
2019-03-04T21:51:47.900Z,92.70
2019-03-04T21:54:18.891Z,92.80
2019-03-04T21:57:36.466Z,92.60
2019-03-04T22:00:20.573Z,92.60
2019-03-04T22:03:15.825Z,92.60
2019-03-04T22:05:50.151Z,92.60
2019-03-04T22:08:20.424Z,92.60
2019-03-04T22:10:52.462Z,92.70
2019-03-04T22:13:25.069Z,92.60
2019-03-04T22:15:57.496Z,92.90
2019-03-04T22:18:29.357Z,92.60
2019-03-04T22:21:00.950Z,92.80
2019-03-04T22:23:32.890Z,92.50
2019-03-04T22:26:03.902Z,92.40
2019-03-04T22:28:34.942Z,92.50
2019-03-04T22:31:06.969Z,92.60
2019-03-04T22:33:37.873Z,92.40
2019-03-04T22:36:09.205Z,92.40
2019-03-04T22:38:40.137Z,92.30
2019-03-04T22:41:13.619Z,92.40
2019-03-04T22:43:43.691Z,92.40
2019-03-04T22:46:14.552Z,92.30
2019-03-04T22:48:45.406Z,92.30
2019-03-04T22:51:16.301Z,92.30
2019-03-04T22:53:47.134Z,92.00
2019-03-04T22:56:18.003Z,92.00
2019-03-04T22:58:48.924Z,91.80
2019-03-04T23:01:53.913Z,91.90
2019-03-04T23:04:50.367Z,91.80
2019-03-04T23:07:33.352Z,91.70
2019-03-04T23:10:29.895Z,91.80
2019-03-04T23:13:44.816Z,91.70
2019-03-04T23:16:18.673Z,91.90
2019-03-04T23:18:49.505Z,91.70
2019-03-04T23:21:20.364Z,91.60
2019-03-04T23:23:52.214Z,92.20
2019-03-04T23:26:23.178Z,91.40
2019-03-04T23:28:54.089Z,91.80
2019-03-04T23:31:25.048Z,91.60
2019-03-04T23:33:55.980Z,91.60
2019-03-04T23:36:27.804Z,91.80
2019-03-04T23:38:59.340Z,91.80
2019-03-04T23:41:30.561Z,91.50
2019-03-04T23:44:01.495Z,91.40
2019-03-04T23:46:32.343Z,91.20
2019-03-04T23:49:03.184Z,91.20
2019-03-04T23:51:34.000Z,91.10
2019-03-04T23:54:04.854Z,91.10
2019-03-04T23:56:35.657Z,91.00
2019-03-04T23:59:06.492Z,91.20
